createdAt,value
2022-12-19T00:03:34.498Z,18.464
2022-12-19T00:18:36.503Z,21.133
2022-12-19T00:33:40.678Z,21.258
2022-12-19T00:48:45.488Z,17.896
2022-12-19T01:04:11.262Z,17.517
2022-12-19T01:19:20.955Z,17.773
2022-12-19T01:34:22.879Z,17.622
2022-12-19T01:49:25.128Z,17.682
2022-12-19T02:04:28.954Z,17.739
2022-12-19T02:19:34.498Z,17.548
2022-12-19T02:34:40.021Z,18.085
2022-12-19T02:49:46.062Z,17.429
2022-12-19T03:04:47.954Z,17.55
2022-12-19T03:19:49.888Z,17.485
2022-12-19T03:34:51.801Z,17.357
2022-12-19T03:49:53.954Z,16.835
2022-12-19T04:04:55.851Z,17.124
2022-12-19T04:19:57.748Z,16.068
2022-12-19T04:34:59.687Z,16.889
2022-12-19T04:50:01.588Z,16.792
2022-12-19T05:05:03.509Z,16.469
2022-12-19T05:20:05.423Z,16.414
2022-12-19T05:35:07.331Z,16.171
2022-12-19T05:50:10.308Z,14.655
2022-12-19T06:05:12.266Z,17.585
2022-12-19T06:20:14.165Z,15.387
2022-12-19T06:35:16.108Z,16.363
2022-12-19T06:50:18.112Z,16.073
2022-12-19T07:05:20.036Z,15.933
2022-12-19T07:20:21.951Z,15.484
2022-12-19T07:35:23.852Z,15.535
2022-12-19T07:50:25.747Z,16.007
2022-12-19T08:05:27.650Z,15.541
2022-12-19T08:20:29.582Z,16.121
2022-12-19T08:35:31.461Z,15.683
2022-12-19T08:50:33.366Z,15.916
2022-12-19T09:06:05.048Z,15.546
2022-12-19T09:21:08.787Z,15.509
2022-12-19T09:36:10.701Z,15.404
2022-12-19T09:51:12.631Z,15.459
2022-12-19T10:07:10.475Z,15.525
2022-12-19T10:22:35.013Z,15.148
2022-12-19T10:37:43.837Z,15.301
2022-12-19T10:52:49.317Z,15.632
2022-12-19T11:07:51.322Z,15.454
2022-12-19T11:30:09.082Z,15.718
2022-12-19T11:46:03.400Z,15.764
2022-12-19T12:01:05.247Z,15.746
2022-12-19T12:31:01.329Z,16.676
2022-12-19T12:46:38.780Z,16.289
2022-12-19T13:01:40.783Z,17.103
2022-12-19T13:16:42.753Z,16.135
2022-12-19T13:31:44.718Z,16.143
2022-12-19T13:46:46.623Z,16.704
2022-12-19T14:01:48.564Z,16.732
2022-12-19T14:16:50.541Z,16.007
2022-12-19T14:32:15.182Z,16.059
2022-12-19T14:52:25.897Z,16.586
2022-12-19T15:11:04.536Z,16.609
2022-12-19T15:26:14.200Z,15.931
2022-12-19T15:41:16.049Z,15.896
2022-12-19T15:56:17.971Z,16.62
2022-12-19T16:11:19.814Z,16.423
2022-12-19T16:26:21.667Z,15.933
2022-12-19T16:41:23.543Z,16.043
2022-12-19T16:56:25.447Z,16.463
2022-12-19T17:11:27.317Z,15.837
2022-12-19T17:26:29.130Z,15.906
2022-12-19T17:41:30.971Z,17.756
2022-12-19T17:56:32.844Z,17.084
2022-12-19T18:11:40.043Z,16.52
2022-12-19T18:26:43.831Z,16.85
2022-12-19T18:41:45.669Z,16.739
2022-12-19T18:56:47.512Z,17.272
2022-12-19T19:11:49.413Z,18.651
2022-12-19T19:26:51.261Z,20.42
2022-12-19T19:41:53.078Z,19.419
2022-12-19T19:56:54.929Z,19.72
2022-12-19T20:11:56.827Z,19.047
2022-12-19T20:26:58.694Z,18.987
2022-12-19T20:42:00.598Z,19.666
2022-12-19T20:57:02.484Z,18.984
2022-12-19T21:12:04.359Z,18.46
2022-12-19T21:27:06.181Z,18.51
2022-12-19T21:42:08.152Z,17.365
2022-12-19T21:57:10.015Z,17.192
2022-12-19T22:12:11.850Z,16.972
2022-12-19T22:27:13.713Z,16.405
2022-12-19T22:42:15.591Z,16.22
2022-12-19T22:57:17.434Z,16.088
2022-12-19T23:12:19.252Z,15.217
2022-12-19T23:27:21.113Z,15.715
2022-12-19T23:42:22.953Z,15.417
2022-12-19T23:57:24.855Z,15.266
